My Meet Scores
Olivia Lopez, Kinetic Gymnastics - MyMeetScores.com
Top100 | Top Teams | Upcoming Meets | Completed Meets | Latest | Add Scores | Help| Support | Bookmark and Share

Olivia Lopez, Kinetic Gymnastics
Personal Bests
LevelVault BarsBeamFloorAA
38.9007.950 8.8509.00034.550
49.3508.900 8.9009.62536.350
XB9.7009.200 9.1009.30036.600
Meet Scores
Date Meet Team Session Level Division Vault Bars Beam Floor AA
2019-11-16 Colorado Level 4 State Kinetic Gymnastics 4 4 Jr. 2A 9.350 2 8.900 9T 8.475 9 9.625 2 36.350 6
2019-10-18 2019 Pink Ribbon Invitational Kinetic Gymnastics 4 4 Jr B 8.100 9 8.275 6 8.750 4 9.225 1 34.350 3
2019-10-05 2019 Judge's Cup NAWGJ Colorado Kinetic Gymnastics 3 4 Child 8.400 12T 8.150 13 8.700 7 8.700 12 33.950 14
2019-09-27 2019 CGI Autumn Classic Kinetic Gymnastics 4 4 CH A 8.450 6T 8.450 12 8.625 12 8.950 5 34.475 10
2019-09-14 2019 AGA Septemberfest Kinetic Gymnastics 3 4 All 8.675 4 7.700 15T 8.725 5 9.225 4 34.325 6
2018-11-16 2018 Colorado Level 4 State Meet Kinetic Gymnastics 1 4 J1 B 8.550 7 7.625 15T 7.650 15 9.000 9 32.825 12
2018-10-27 Xtreme Altitude Fall Classic Kinetic Gymnastics 2 4 Child 8.600 5 8.000 19 8.500 14 8.500 18 33.600 15
2018-10-06 2018 AGA Rocktoberfest Kinetic Gymnastics 2 4 Ch 7.900 15 7.800 17 8.050 17 8.700 15 32.450 16
2018-09-15 2018 Cgi Autumn Classic Kinetic Gymnastics 5 4 Jr A 8.000 9T 7.450 13 8.900 9 7.775 12 32.125 11
2018-08-25 2018 Summer Carnival Kinetic Gymnastics 1 4 Jr A 8.000 22T 6.400 63 7.950 29T 8.400 22T 30.750 40
2017-12-09 Level 3 State Championships Kinetic Gymnastics 1 3 Jr A 8.800 8 7.950 7T 8.850 5 8.950 1T 34.550 5
2017-11-11 2017 AGA Compulsory Meet Kinetic Gymnastics 1 3 Ch 8.900 3 6.400 20 7.400 17 8.700 14T 31.400 18
2017-11-04 Mile High Salute Kinetic Gymnastics 1 3 Group 1 8.600 9 6.950 12 7.900 12 8.050 12 31.500 11
2017-10-21 JET Gymnastics Pink Ribbon Invitational Kinetic Gymnastics 4 3 Jr A 8.400 14 0.000 14T 7.650 14T 9.000 8T 25.050 14
2017-06-10 2017 Colorado Xcel Bronze State Championships Kinetic Gymnastics 3 XB Jr A 8.875 11T 8.850 14 8.200 16 9.000 11 34.925 16
2017-05-20 2017 Cartwheel Carnival Kinetic Gymnastics 6 XB Child 1 9.000 5T 8.000 11 8.600 7 9.200 5T 34.800 9
2017-05-06 Xcel Xtravaganza Kinetic Gymnastics 4 XB Child 9.100 11T 9.100 10T 9.100 7T 9.300 8T 36.600 7
2017-03-31 Hippity Hoppity 2017 Kinetic Gymnastics 05 XB Junior A 9.700 1 9.200 8 8.500 9T 9.100 5T 36.500 5
2017-03-17 Peak Live Love Gymnastics 2017 Kinetic Gymnastics 9 XB JR B 8.700 11T 8.400 16 8.550 11T 9.150 9 34.800 11T
2017-03-03 2017 CSI Colorado Sky Invitational Kinetic Gymnastics 6B XB Junior 8.750 1 8.200 9 8.600 7 9.200 3 34.750 7
Get your scores on
a t-shirt, pin, or hoodie

www.lazysuits.com